createdAt,value
2023-02-13T00:01:56.095Z,9.10
2023-02-13T00:04:25.426Z,9.00
2023-02-13T00:06:54.464Z,9.10
2023-02-13T00:09:23.598Z,9.20
2023-02-13T00:11:52.888Z,9.10
2023-02-13T00:14:22.127Z,9.10
2023-02-13T00:16:52.642Z,9.10
2023-02-13T00:19:21.536Z,9.10
2023-02-13T00:21:50.594Z,9.10
2023-02-13T00:24:20.327Z,9.10
2023-02-13T00:26:51.831Z,9.20
2023-02-13T00:29:20.969Z,9.20
2023-02-13T00:31:52.096Z,9.10
2023-02-13T00:34:20.996Z,9.20
2023-02-13T00:36:49.936Z,9.20
2023-02-13T00:39:19.378Z,9.20
2023-02-13T00:41:48.368Z,9.20
2023-02-13T00:44:18.796Z,9.10
2023-02-13T00:46:48.362Z,9.10
2023-02-13T00:49:21.085Z,9.10
2023-02-13T00:51:50.547Z,9.00
2023-02-13T00:54:19.514Z,9.00
2023-02-13T00:56:48.501Z,9.00
2023-02-13T00:59:18.494Z,9.00
2023-02-13T01:01:47.529Z,9.00
2023-02-13T01:04:16.628Z,9.00
2023-02-13T01:06:47.025Z,9.00
2023-02-13T01:09:15.884Z,9.00
2023-02-13T01:11:44.739Z,9.00
2023-02-13T01:14:13.375Z,9.10
2023-02-13T01:16:42.164Z,9.10
2023-02-13T01:19:11.105Z,9.10
2023-02-13T01:21:40.121Z,9.00
2023-02-13T01:24:11.055Z,9.00
2023-02-13T01:26:39.925Z,9.00
2023-02-13T01:29:09.409Z,9.00
2023-02-13T01:31:38.685Z,9.00
2023-02-13T01:34:07.661Z,9.10
2023-02-13T01:36:36.938Z,9.00
2023-02-13T01:39:06.059Z,9.00
2023-02-13T01:41:36.427Z,9.00
2023-02-13T01:44:21.182Z,9.00
2023-02-13T01:46:54.716Z,9.00
2023-02-13T01:49:27.675Z,8.90
2023-02-13T01:52:04.416Z,8.90
2023-02-13T01:54:39.962Z,8.90
2023-02-13T01:57:18.659Z,9.00
2023-02-13T01:59:52.525Z,8.90
2023-02-13T02:02:27.704Z,8.90
2023-02-13T02:05:00.075Z,8.80
2023-02-13T02:07:32.626Z,8.80
2023-02-13T02:10:14.603Z,8.80
2023-02-13T02:12:52.892Z,8.80
2023-02-13T02:15:23.301Z,8.80
2023-02-13T02:17:52.278Z,8.70
2023-02-13T02:20:34.843Z,8.70
2023-02-13T02:23:29.452Z,8.70
2023-02-13T02:26:28.968Z,8.70
2023-02-13T02:29:37.679Z,8.70
2023-02-13T02:32:37.682Z,8.70
2023-02-13T02:35:19.348Z,8.70
2023-02-13T02:38:24.027Z,8.70
2023-02-13T02:41:07.699Z,8.70
2023-02-13T02:44:01.165Z,8.70
2023-02-13T02:46:39.683Z,8.60
2023-02-13T02:49:37.556Z,8.70
2023-02-13T02:52:17.276Z,8.60
2023-02-13T02:55:06.683Z,8.50
2023-02-13T02:57:59.926Z,8.50
2023-02-13T03:00:48.257Z,8.60
2023-02-13T03:03:37.990Z,8.60
2023-02-13T03:06:15.411Z,8.50
2023-02-13T03:09:04.834Z,8.60
2023-02-13T03:11:51.061Z,8.60
2023-02-13T03:14:22.606Z,8.50
2023-02-13T03:17:09.974Z,8.60
2023-02-13T03:20:05.412Z,8.60
2023-02-13T03:22:46.916Z,8.60
2023-02-13T03:25:30.940Z,8.50
2023-02-13T03:28:24.164Z,8.50
2023-02-13T03:31:09.805Z,8.50
2023-02-13T03:33:56.582Z,8.50
2023-02-13T03:36:52.688Z,8.50
2023-02-13T03:39:30.080Z,8.40
2023-02-13T03:42:04.567Z,8.40
2023-02-13T03:44:38.319Z,8.40
2023-02-13T03:47:09.909Z,8.50
2023-02-13T03:50:00.972Z,8.40
2023-02-13T03:52:34.821Z,8.40
2023-02-13T03:55:27.827Z,8.30
2023-02-13T03:58:21.410Z,8.40
2023-02-13T04:00:53.462Z,8.40
2023-02-13T04:03:28.707Z,8.40
2023-02-13T04:06:06.333Z,8.30
2023-02-13T04:08:35.462Z,8.50
2023-02-13T04:11:12.818Z,8.40
2023-02-13T04:13:48.453Z,8.30
2023-02-13T04:16:23.104Z,8.30
2023-02-13T04:18:55.109Z,8.40
2023-02-13T04:21:24.464Z,8.40
2023-02-13T04:23:53.660Z,8.40
2023-02-13T04:26:25.492Z,8.40
2023-02-13T04:28:55.101Z,8.30
2023-02-13T04:31:24.484Z,8.30
2023-02-13T04:33:53.841Z,8.30
2023-02-13T04:36:22.814Z,8.30
2023-02-13T04:38:52.370Z,8.30
2023-02-13T04:41:21.297Z,8.30
2023-02-13T04:43:52.735Z,8.30
2023-02-13T04:46:22.209Z,8.30
2023-02-13T04:48:51.396Z,8.30
2023-02-13T04:51:20.351Z,8.40
2023-02-13T04:53:49.153Z,8.30
2023-02-13T04:56:19.912Z,8.30
2023-02-13T04:58:49.145Z,8.30
2023-02-13T05:01:19.904Z,8.30
2023-02-13T05:03:48.790Z,8.20
2023-02-13T05:06:17.759Z,8.20
2023-02-13T05:08:46.811Z,8.10
2023-02-13T05:11:16.218Z,8.20
2023-02-13T05:13:45.278Z,8.10
2023-02-13T05:16:14.053Z,8.10
2023-02-13T05:18:45.171Z,8.20
2023-02-13T05:21:31.044Z,8.20
2023-02-13T05:23:59.946Z,8.10
2023-02-13T05:26:28.541Z,8.00
2023-02-13T05:29:14.468Z,8.00
2023-02-13T05:31:43.432Z,7.90
2023-02-13T05:34:14.037Z,7.90
2023-02-13T05:36:42.865Z,7.70
2023-02-13T05:39:11.737Z,7.60
2023-02-13T05:41:40.714Z,7.50
2023-02-13T05:44:10.349Z,7.40
2023-02-13T05:46:40.572Z,7.20
2023-02-13T05:49:10.276Z,7.00
2023-02-13T05:51:40.628Z,6.90
2023-02-13T05:54:09.148Z,6.70
2023-02-13T05:56:38.113Z,6.70
2023-02-13T05:59:06.796Z,6.50
2023-02-13T06:01:36.291Z,6.30
2023-02-13T06:04:05.719Z,6.30
2023-02-13T06:06:35.082Z,6.20
2023-02-13T06:09:06.982Z,6.10
2023-02-13T06:11:36.216Z,6.00
2023-02-13T06:14:05.140Z,5.70
2023-02-13T06:16:36.218Z,5.90
2023-02-13T06:19:05.289Z,5.80
2023-02-13T06:21:38.096Z,5.90
2023-02-13T06:24:09.903Z,5.70
2023-02-13T06:26:38.981Z,5.70
2023-02-13T06:29:09.443Z,5.70
2023-02-13T06:31:38.578Z,5.70
2023-02-13T06:34:08.458Z,5.50
2023-02-13T06:36:38.826Z,5.50
2023-02-13T06:39:09.422Z,5.30
2023-02-13T06:41:38.286Z,5.30
2023-02-13T06:44:08.231Z,5.10
2023-02-13T06:46:37.005Z,5.00
2023-02-13T06:49:08.160Z,4.80
2023-02-13T06:51:39.202Z,4.70
2023-02-13T06:54:11.668Z,4.70
2023-02-13T06:56:42.958Z,4.70
2023-02-13T06:59:12.166Z,4.70
2023-02-13T07:01:41.863Z,4.70
2023-02-13T07:04:14.035Z,4.90
2023-02-13T07:06:43.484Z,5.00
2023-02-13T07:09:15.113Z,5.00
2023-02-13T07:11:44.652Z,5.00
2023-02-13T07:14:14.040Z,5.00
2023-02-13T07:16:43.383Z,5.10
2023-02-13T07:19:12.442Z,5.00
2023-02-13T07:21:42.111Z,5.10
2023-02-13T07:24:13.105Z,5.10
2023-02-13T07:26:42.343Z,5.10
2023-02-13T07:29:12.478Z,5.30
2023-02-13T07:31:41.983Z,5.40
2023-02-13T07:34:10.946Z,5.50
2023-02-13T07:36:40.938Z,5.50
2023-02-13T07:39:10.086Z,5.60
2023-02-13T07:41:40.650Z,5.70
2023-02-13T07:44:09.888Z,5.80
2023-02-13T07:46:40.081Z,5.80
2023-02-13T07:49:09.412Z,5.90
2023-02-13T07:51:38.673Z,6.00
2023-02-13T07:54:07.431Z,6.10
2023-02-13T07:56:36.646Z,6.20
2023-02-13T07:59:08.077Z,6.30
2023-02-13T08:01:37.429Z,6.30
2023-02-13T08:04:06.651Z,6.50
2023-02-13T08:06:35.893Z,6.60
2023-02-13T08:09:22.011Z,6.70
2023-02-13T08:11:57.465Z,6.80
2023-02-13T08:14:28.750Z,6.90
2023-02-13T08:16:58.285Z,7.00
2023-02-13T08:19:27.334Z,7.00
2023-02-13T08:21:56.836Z,7.10
2023-02-13T08:24:26.480Z,7.20
2023-02-13T08:27:02.825Z,7.30
2023-02-13T08:29:36.022Z,7.30
2023-02-13T08:32:05.489Z,7.40
2023-02-13T08:34:34.586Z,7.50
2023-02-13T08:37:03.876Z,7.60
2023-02-13T08:39:33.331Z,7.70
2023-02-13T08:42:06.346Z,7.80
2023-02-13T08:44:41.590Z,7.90
2023-02-13T08:47:14.234Z,7.90
2023-02-13T08:49:43.541Z,8.00
2023-02-13T08:52:15.691Z,8.10
2023-02-13T08:54:49.359Z,8.20
2023-02-13T08:57:18.590Z,8.30
2023-02-13T08:59:49.083Z,8.30
2023-02-13T09:02:19.262Z,8.40
2023-02-13T09:04:48.951Z,8.50
2023-02-13T09:07:17.886Z,8.50
2023-02-13T09:09:47.000Z,8.60
2023-02-13T09:12:23.408Z,8.70
2023-02-13T09:14:56.987Z,8.80
2023-02-13T09:17:26.112Z,8.80
2023-02-13T09:19:54.909Z,9.00
2023-02-13T09:22:25.807Z,9.00
2023-02-13T09:24:54.481Z,9.00
2023-02-13T09:27:24.117Z,9.10
2023-02-13T09:30:01.797Z,9.20
2023-02-13T09:32:33.352Z,9.30
2023-02-13T09:35:20.160Z,9.40
2023-02-13T09:37:52.249Z,9.40
2023-02-13T09:40:32.025Z,9.50
2023-02-13T09:43:14.098Z,9.60
2023-02-13T09:45:52.501Z,9.60
2023-02-13T09:48:30.398Z,9.70
2023-02-13T09:50:59.586Z,9.80
2023-02-13T09:53:33.757Z,9.90
2023-02-13T09:56:12.096Z,9.90
2023-02-13T09:58:45.860Z,10.00
2023-02-13T10:01:31.088Z,10.00
2023-02-13T10:04:24.619Z,10.20
2023-02-13T10:07:03.524Z,10.30
2023-02-13T10:09:41.249Z,10.30
2023-02-13T10:12:38.968Z,10.30
2023-02-13T10:15:20.300Z,10.30
2023-02-13T10:17:55.787Z,10.40
2023-02-13T10:20:33.954Z,10.40
2023-02-13T10:23:08.593Z,10.60
2023-02-13T10:25:48.136Z,10.60
2023-02-13T10:28:21.898Z,10.70
2023-02-13T10:30:54.673Z,10.80
2023-02-13T10:33:29.626Z,10.90
2023-02-13T10:36:15.760Z,10.90
2023-02-13T10:38:53.951Z,10.90
2023-02-13T10:41:34.127Z,11.00
2023-02-13T10:44:23.658Z,11.10
2023-02-13T10:47:05.583Z,11.10
2023-02-13T10:49:47.627Z,11.30
2023-02-13T10:52:28.598Z,11.30
2023-02-13T10:55:15.531Z,11.40
2023-02-13T10:58:02.946Z,11.50
2023-02-13T11:00:36.659Z,11.60
2023-02-13T11:03:06.026Z,11.70
2023-02-13T11:05:38.834Z,11.80
2023-02-13T11:08:20.252Z,12.10
2023-02-13T11:10:49.039Z,12.50
2023-02-13T11:13:20.577Z,13.00
2023-02-13T11:16:02.243Z,13.40
2023-02-13T11:18:34.393Z,14.10
2023-02-13T11:21:09.381Z,14.80
2023-02-13T11:23:52.631Z,15.60
2023-02-13T11:26:27.225Z,16.40
2023-02-13T11:28:58.388Z,17.20
2023-02-13T11:31:32.503Z,18.00
2023-02-13T11:34:19.365Z,18.30
2023-02-13T11:36:52.925Z,18.40
2023-02-13T11:39:24.616Z,18.80
2023-02-13T11:41:53.821Z,19.10
2023-02-13T11:44:27.508Z,19.70
2023-02-13T11:46:58.370Z,20.30
2023-02-13T11:49:29.266Z,20.80
2023-02-13T11:51:59.977Z,20.90
2023-02-13T11:54:34.347Z,20.50
2023-02-13T11:57:06.137Z,20.40
2023-02-13T11:59:42.890Z,20.10
2023-02-13T12:02:21.767Z,20.30
2023-02-13T12:04:53.324Z,20.20
2023-02-13T12:07:26.266Z,20.40
2023-02-13T12:10:04.545Z,21.10
2023-02-13T12:12:39.873Z,21.30
2023-02-13T12:15:19.375Z,21.90
2023-02-13T12:17:53.386Z,22.00
2023-02-13T12:20:22.605Z,22.10
2023-02-13T12:23:03.477Z,22.20
2023-02-13T12:26:02.166Z,21.90
2023-02-13T12:28:44.650Z,21.70
2023-02-13T12:31:41.163Z,22.20
2023-02-13T12:34:31.669Z,22.50
2023-02-13T12:37:18.534Z,21.80
2023-02-13T12:40:01.946Z,22.50
2023-02-13T12:42:42.512Z,22.80
2023-02-13T12:45:24.097Z,22.40
2023-02-13T12:48:11.820Z,22.80
2023-02-13T12:50:57.012Z,23.40
2023-02-13T12:53:44.626Z,24.10
2023-02-13T12:56:32.823Z,24.20
2023-02-13T12:59:11.733Z,25.10
2023-02-13T13:01:55.607Z,25.60
2023-02-13T13:04:34.541Z,25.60
2023-02-13T13:07:21.090Z,25.80
2023-02-13T13:10:05.146Z,25.80
2023-02-13T13:12:45.293Z,25.20
2023-02-13T13:15:27.653Z,24.40
2023-02-13T13:18:18.654Z,23.10
2023-02-13T13:21:13.293Z,22.70
2023-02-13T13:23:46.977Z,23.40
2023-02-13T13:26:25.412Z,23.40
2023-02-13T13:28:57.460Z,24.00
2023-02-13T13:31:29.772Z,23.80
2023-02-13T13:34:03.647Z,24.00
2023-02-13T13:36:40.557Z,24.50
2023-02-13T13:39:22.181Z,24.70
2023-02-13T13:41:58.773Z,25.10
2023-02-13T13:44:44.338Z,25.60
2023-02-13T13:47:25.615Z,25.50
2023-02-13T13:49:56.830Z,26.00
2023-02-13T13:52:28.260Z,26.10
2023-02-13T13:55:00.278Z,26.40
2023-02-13T13:57:49.397Z,26.70
2023-02-13T14:00:30.620Z,27.10
2023-02-13T14:03:37.930Z,26.80
2023-02-13T14:06:09.788Z,25.10
2023-02-13T14:09:07.876Z,25.60
2023-02-13T14:11:46.546Z,26.40
2023-02-13T14:14:53.290Z,26.90
2023-02-13T14:17:54.741Z,27.00
2023-02-13T14:20:40.401Z,26.20
2023-02-13T14:23:34.063Z,26.20
2023-02-13T14:26:22.611Z,26.60
2023-02-13T14:29:14.270Z,26.70
2023-02-13T14:31:45.247Z,25.80
2023-02-13T14:34:24.357Z,25.20
2023-02-13T14:37:08.293Z,25.90
2023-02-13T14:39:38.242Z,26.60
2023-02-13T14:42:24.780Z,25.90
2023-02-13T14:44:57.546Z,26.20
2023-02-13T14:47:31.832Z,26.30
2023-02-13T14:50:02.543Z,26.30
2023-02-13T14:52:43.179Z,26.20
2023-02-13T14:55:17.776Z,26.30
2023-02-13T14:57:50.764Z,26.30
2023-02-13T15:00:26.743Z,26.50
2023-02-13T15:03:00.952Z,26.20
2023-02-13T15:05:33.719Z,26.30
2023-02-13T15:08:12.811Z,26.70
2023-02-13T15:10:47.280Z,26.70
2023-02-13T15:13:18.474Z,26.30
2023-02-13T15:15:54.590Z,26.30
2023-02-13T15:18:26.603Z,26.40
2023-02-13T15:20:58.401Z,26.20
2023-02-13T15:23:30.912Z,26.20
2023-02-13T15:26:02.144Z,26.00
2023-02-13T15:28:31.224Z,25.70
2023-02-13T15:31:02.644Z,25.60
2023-02-13T15:33:38.264Z,25.30
2023-02-13T15:36:08.511Z,24.00
2023-02-13T15:38:39.789Z,22.40
2023-02-13T15:41:11.848Z,21.10
2023-02-13T15:43:44.478Z,20.00
2023-02-13T15:46:22.093Z,19.10
2023-02-13T15:48:54.293Z,18.40
2023-02-13T15:51:26.193Z,17.90
2023-02-13T15:53:58.064Z,17.50
2023-02-13T15:56:27.734Z,17.10
2023-02-13T15:58:59.916Z,16.80
2023-02-13T16:01:29.666Z,16.40
2023-02-13T16:04:17.687Z,16.20
2023-02-13T16:06:48.549Z,16.00
2023-02-13T16:09:29.206Z,15.90
2023-02-13T16:12:02.306Z,15.60
2023-02-13T16:14:40.832Z,15.50
2023-02-13T16:17:18.466Z,15.30
2023-02-13T16:19:54.682Z,15.00
2023-02-13T16:22:31.574Z,14.70
2023-02-13T16:25:20.074Z,14.50
2023-02-13T16:27:51.975Z,14.30
2023-02-13T16:30:32.825Z,14.10
2023-02-13T16:33:23.722Z,13.80
2023-02-13T16:35:55.371Z,13.40
2023-02-13T16:38:32.583Z,13.10
2023-02-13T16:41:04.903Z,12.90
2023-02-13T16:43:42.790Z,12.70
2023-02-13T16:46:24.547Z,12.50
2023-02-13T16:49:18.261Z,12.20
2023-02-13T16:51:50.877Z,11.90
2023-02-13T16:54:39.391Z,11.70
2023-02-13T16:57:23.875Z,11.30
2023-02-13T17:00:09.959Z,11.00
2023-02-13T17:02:40.101Z,10.70
2023-02-13T17:05:23.262Z,10.50
2023-02-13T17:07:55.351Z,10.20
2023-02-13T17:10:28.016Z,10.00
2023-02-13T17:13:02.113Z,9.90
2023-02-13T17:15:32.902Z,9.90
2023-02-13T17:18:01.974Z,9.60
2023-02-13T17:20:33.412Z,9.50
2023-02-13T17:23:03.992Z,9.30
2023-02-13T17:25:35.950Z,9.20
2023-02-13T17:28:13.617Z,9.10
2023-02-13T17:30:43.332Z,9.10
2023-02-13T17:33:16.338Z,9.00
2023-02-13T17:35:46.586Z,8.80
2023-02-13T17:38:21.368Z,8.60
2023-02-13T17:40:52.258Z,8.40
2023-02-13T17:43:23.788Z,8.20
2023-02-13T17:45:52.527Z,8.00
2023-02-13T17:48:22.373Z,7.90
2023-02-13T17:51:04.624Z,7.80
2023-02-13T17:53:34.664Z,7.60
2023-02-13T17:56:04.755Z,7.50
2023-02-13T17:58:35.282Z,7.30
2023-02-13T18:01:04.218Z,7.20
2023-02-13T18:03:33.278Z,7.20
2023-02-13T18:06:02.547Z,7.10
2023-02-13T18:08:31.187Z,7.10
2023-02-13T18:11:00.393Z,7.10
2023-02-13T18:13:29.704Z,7.00
2023-02-13T18:16:00.342Z,7.00
2023-02-13T18:18:31.798Z,7.00
2023-02-13T18:21:00.830Z,6.90
2023-02-13T18:23:29.729Z,6.90
2023-02-13T18:26:09.364Z,6.80
2023-02-13T18:28:38.850Z,6.80
2023-02-13T18:31:12.318Z,6.70
2023-02-13T18:33:41.165Z,6.70
2023-02-13T18:36:11.033Z,6.60
2023-02-13T18:38:40.050Z,6.50
2023-02-13T18:41:08.704Z,6.40
2023-02-13T18:43:37.721Z,6.40
2023-02-13T18:46:06.638Z,6.30
2023-02-13T18:48:36.706Z,6.30
2023-02-13T18:51:08.728Z,6.30
2023-02-13T18:53:37.576Z,6.50
2023-02-13T18:56:08.522Z,6.50
2023-02-13T18:58:37.523Z,6.20
2023-02-13T19:01:11.791Z,5.90
2023-02-13T19:03:42.211Z,5.60
2023-02-13T19:06:14.121Z,5.40
2023-02-13T19:08:43.018Z,5.20
2023-02-13T19:11:15.371Z,5.10
2023-02-13T19:13:44.686Z,5.00
2023-02-13T19:16:15.783Z,5.00
2023-02-13T19:20:01.660Z,4.90
2023-02-13T19:34:25.237Z,4.60
2023-02-13T20:02:48.763Z,3.90
2023-02-13T20:04:54.338Z,3.80
2023-02-13T20:07:26.044Z,3.80
2023-02-13T20:09:55.507Z,3.80
2023-02-13T20:12:24.737Z,4.10
2023-02-13T20:19:16.847Z,4.00
2023-02-13T20:22:45.236Z,3.80
2023-02-13T20:25:32.668Z,3.70
2023-02-13T20:28:12.865Z,3.60
2023-02-13T20:42:57.853Z,3.40
2023-02-13T20:45:29.375Z,3.30
2023-02-13T20:47:58.669Z,3.30
2023-02-13T20:50:27.820Z,3.30
2023-02-13T20:52:56.538Z,3.20
2023-02-13T20:55:25.805Z,3.20
2023-02-13T20:57:57.368Z,3.00
2023-02-13T21:00:26.535Z,3.00
2023-02-13T21:02:55.652Z,3.00
2023-02-13T21:05:25.577Z,3.00
2023-02-13T21:07:54.530Z,3.00
2023-02-13T21:10:23.730Z,2.90
2023-02-13T21:12:52.892Z,2.90
2023-02-13T21:15:23.643Z,2.90
2023-02-13T21:17:53.177Z,2.80
2023-02-13T21:20:22.662Z,2.90
2023-02-13T21:22:51.917Z,2.90
2023-02-13T21:25:21.220Z,3.00
2023-02-13T21:27:50.088Z,3.00
2023-02-13T21:30:21.845Z,3.00
2023-02-13T21:32:52.318Z,3.10
2023-02-13T21:35:21.370Z,3.30
2023-02-13T21:37:50.125Z,3.50
2023-02-13T21:40:20.558Z,3.60
2023-02-13T21:42:49.243Z,3.60
2023-02-13T21:45:18.730Z,3.60
2023-02-13T21:47:47.942Z,3.70
2023-02-13T21:50:18.347Z,3.60
2023-02-13T21:52:47.173Z,3.70
2023-02-13T21:55:16.149Z,3.60
2023-02-13T21:57:45.189Z,3.60
2023-02-13T22:00:15.793Z,3.60
2023-02-13T22:02:44.254Z,3.60
2023-02-13T22:05:13.176Z,3.70
2023-02-13T22:07:56.927Z,3.70
2023-02-13T22:10:25.978Z,3.70
2023-02-13T22:12:55.069Z,3.80
2023-02-13T22:15:23.776Z,4.00
2023-02-13T22:17:53.348Z,4.10
2023-02-13T22:20:22.506Z,4.30
2023-02-13T22:22:52.891Z,4.50
2023-02-13T22:25:21.614Z,4.60
2023-02-13T22:27:50.371Z,4.80
2023-02-13T22:30:19.743Z,4.90
2023-02-13T22:32:48.560Z,4.90
2023-02-13T22:35:17.289Z,4.80
2023-02-13T22:37:46.207Z,4.90
2023-02-13T22:40:16.248Z,4.80
2023-02-13T22:42:44.961Z,4.80
2023-02-13T22:45:13.928Z,4.80
2023-02-13T22:47:42.741Z,4.80
2023-02-13T22:50:11.930Z,4.70
2023-02-13T22:52:41.134Z,4.60
2023-02-13T22:55:10.133Z,4.60
2023-02-13T22:57:40.618Z,4.60
2023-02-13T23:00:12.732Z,4.40
2023-02-13T23:02:41.905Z,4.40
2023-02-13T23:05:10.918Z,4.20
2023-02-13T23:07:39.609Z,4.20
2023-02-13T23:10:09.603Z,4.10
2023-02-13T23:12:40.035Z,4.10
2023-02-13T23:15:11.127Z,4.10
2023-02-13T23:17:57.649Z,4.10
2023-02-13T23:20:27.136Z,4.20
2023-02-13T23:22:56.152Z,4.20
2023-02-13T23:25:25.748Z,4.30
2023-02-13T23:27:57.125Z,4.20
2023-02-13T23:30:26.815Z,4.20
2023-02-13T23:32:56.144Z,4.10
2023-02-13T23:35:25.189Z,4.00
2023-02-13T23:37:54.753Z,4.00
2023-02-13T23:40:23.954Z,4.00
2023-02-13T23:42:52.999Z,4.00
2023-02-13T23:45:24.443Z,3.80
2023-02-13T23:47:54.645Z,3.70
2023-02-13T23:50:25.828Z,3.60
2023-02-13T23:52:55.627Z,3.40
2023-02-13T23:55:25.270Z,3.40
2023-02-13T23:57:55.016Z,3.30
